Time;durP1;ratioP1;P1;durP2;ratioP2;P2;SDS_P1;SDS_P2;PMS_P1;PMS_P2;Temp;Humidity;BMP_temperature;BMP_pressure;BME280_temperature;BME280_humidity;BME280_pressure;Samples;Min_cycle;Max_cycle;Signal;HPM_P1;HPM_P2
2022/10/12 00:01:42;;;;;;;2.87;2.67;;;12.70;99.90;12.00;96613.00;;;;5095831;28;20226;-54
2022/10/12 00:04:11;;;;;;;1.80;1.70;;;12.80;99.90;12.10;96610.00;;;;5113668;28;20241;-51
2022/10/12 00:06:37;;;;;;;2.10;2.00;;;12.80;99.90;12.10;96608.00;;;;5113708;28;20225;-53
2022/10/12 00:09:03;;;;;;;1.33;1.33;;;12.70;99.90;12.10;96601.00;;;;5113963;28;20190;-52
2022/10/12 00:11:30;;;;;;;1.73;1.63;;;12.80;99.90;12.20;96599.00;;;;5096250;28;20218;-55
2022/10/12 00:13:58;;;;;;;1.57;1.50;;;12.80;99.90;12.10;96600.00;;;;5095930;28;20289;-56
2022/10/12 00:16:30;;;;;;;1.87;1.77;;;12.80;99.90;12.10;96608.00;;;;5113746;28;20783;-51
2022/10/12 00:18:58;;;;;;;1.83;1.73;;;12.80;99.90;12.10;96599.00;;;;5113504;28;20665;-52
2022/10/12 00:21:29;;;;;;;6.57;2.67;;;12.80;99.90;12.10;96573.00;;;;5113637;28;20197;-51
2022/10/12 00:23:56;;;;;;;2.33;2.13;;;12.80;99.90;12.10;96594.00;;;;5113692;28;20190;-51
2022/10/12 00:26:24;;;;;;;2.20;1.87;;;12.80;99.90;12.20;96596.00;;;;5095510;28;20281;-53
2022/10/12 00:28:58;;;;;;;3.63;1.40;;;12.90;99.90;12.20;96591.00;;;;5113512;28;20218;-51
2022/10/12 00:31:26;;;;;;;1.87;1.77;;;12.90;99.90;12.20;96600.00;;;;5095509;28;20283;-52
2022/10/12 00:33:53;;;;;;;1.77;1.67;;;12.90;99.90;12.10;96609.00;;;;5113481;28;20206;-51
2022/10/12 00:36:23;;;;;;;2.53;2.33;;;12.80;99.90;12.10;96606.00;;;;5113348;28;20186;-52
2022/10/12 00:38:53;;;;;;;6.33;2.70;;;12.80;99.90;12.00;96604.00;;;;5113477;28;20679;-51
2022/10/12 00:41:27;;;;;;;2.87;2.67;;;12.70;99.90;11.90;96609.00;;;;5115139;28;20198;-51
2022/10/12 00:43:54;;;;;;;2.93;2.73;;;12.70;99.90;11.90;96603.00;;;;5116826;28;20221;-54
2022/10/12 00:46:31;;;;;;;1.87;1.77;;;12.70;99.90;12.00;96602.00;;;;5116914;28;20301;-51
2022/10/12 00:49:07;;;;;;;1.77;1.67;;;12.70;99.90;11.90;96605.00;;;;5116763;28;20185;-51
2022/10/12 00:51:34;;;;;;;1.40;1.40;;;12.70;99.90;11.80;96601.00;;;;5116838;28;20242;-51
2022/10/12 00:54:09;;;;;;;3.00;2.07;;;12.60;99.90;11.90;96602.00;;;;5116813;28;20551;-51
2022/10/12 00:56:41;;;;;;;2.73;2.53;;;12.60;99.90;11.90;96596.00;;;;5116649;28;20214;-51
2022/10/12 00:59:17;;;;;;;2.57;1.70;;;12.60;99.90;11.90;96600.00;;;;5116826;28;20206;-51
2022/10/12 01:01:44;;;;;;;2.10;2.00;;;12.70;99.90;12.00;96597.00;;;;5116576;28;20240;-52
2022/10/12 01:04:12;;;;;;;1.20;1.20;;;12.70;99.90;12.00;96543.00;;;;5116550;28;20289;-52
2022/10/12 01:06:38;;;;;;;5.30;2.50;;;12.70;99.90;12.10;96604.00;;;;5116509;28;20245;-52
2022/10/12 01:09:07;;;;;;;2.10;2.00;;;12.70;99.90;12.10;96603.00;;;;5098699;28;20668;-52
2022/10/12 01:11:36;;;;;;;2.83;2.13;;;12.70;99.90;12.10;96601.00;;;;5098415;28;20210;-51
2022/10/12 01:14:03;;;;;;;12.50;2.70;;;12.80;99.90;12.10;96607.00;;;;5116385;28;20683;-51
2022/10/12 01:16:40;;;;;;;4.70;4.20;;;12.80;99.90;12.10;96604.00;;;;5116458;28;20581;-52
2022/10/12 01:19:34;;;;;;;2.83;2.63;;;12.80;99.90;12.10;96608.00;;;;5116335;28;20670;-51
2022/10/12 01:22:05;;;;;;;4.40;3.53;;;12.80;99.90;12.10;96609.00;;;;5115423;28;20194;-51
2022/10/12 01:24:50;;;;;;;8.03;1.93;;;12.80;99.90;12.10;96607.00;;;;5116343;28;20286;-51
2022/10/12 01:27:38;;;;;;;1.90;1.80;;;12.70;99.90;12.10;96606.00;;;;5116149;28;20682;-51
2022/10/12 01:30:20;;;;;;;1.50;1.50;;;12.70;99.90;12.00;96603.00;;;;5098079;28;20236;-51
2022/10/12 01:33:16;;;;;;;3.10;2.90;;;12.80;99.90;12.10;96598.00;;;;5116227;28;20202;-51
2022/10/12 01:35:53;;;;;;;4.13;3.80;;;12.70;99.90;11.90;96601.00;;;;5116074;28;20226;-51
2022/10/12 01:38:36;;;;;;;4.10;3.43;;;12.60;99.90;11.90;96593.00;;;;5116076;28;20270;-52
2022/10/12 01:41:13;;;;;;;17.47;3.17;;;12.60;99.90;11.90;96597.00;;;;5115938;28;20214;-51
2022/10/12 01:43:43;;;;;;;2.43;2.23;;;12.60;99.90;11.90;96590.00;;;;5115975;28;20201;-51
2022/10/12 01:46:40;;;;;;;4.37;3.20;;;12.60;99.90;11.90;96588.00;;;;5115797;28;20200;-51
2022/10/12 01:49:07;;;;;;;3.97;3.63;;;12.60;99.90;11.90;96580.00;;;;5115940;28;20483;-51
2022/10/12 01:52:15;;;;;;;4.67;4.20;;;12.60;99.90;11.90;96584.00;;;;5115734;28;20663;-52
2022/10/12 01:55:00;;;;;;;7.50;4.37;;;12.70;99.90;12.00;96591.00;;;;5046408;28;20655;-53
2022/10/12 01:57:38;;;;;;;2.97;2.67;;;12.70;99.90;12.10;96593.00;;;;5115721;28;20265;-51
2022/10/12 02:00:12;;;;;;;2.33;2.13;;;12.80;99.90;12.10;96587.00;;;;5115668;28;20194;-51
2022/10/12 02:02:51;;;;;;;3.33;3.00;;;12.80;99.90;12.20;96599.00;;;;5115681;28;20186;-51
2022/10/12 02:05:32;;;;;;;4.53;4.17;;;12.80;99.90;12.20;96591.00;;;;5115610;28;20577;-51
2022/10/12 02:08:08;;;;;;;3.97;3.20;;;12.80;99.90;12.20;96593.00;;;;5115478;28;20214;-51
2022/10/12 02:10:42;;;;;;;3.27;2.97;;;12.90;99.90;12.30;96590.00;;;;5115629;28;20245;-51
2022/10/12 02:13:14;;;;;;;3.43;3.13;;;12.90;99.90;12.30;96591.00;;;;5115536;28;20206;-52
2022/10/12 02:15:44;;;;;;;4.50;3.97;;;12.90;99.90;12.30;96587.00;;;;5097436;28;20668;-52
2022/10/12 02:18:18;;;;;;;2.50;2.30;;;12.90;99.90;12.30;96588.00;;;;5115394;28;20191;-52
2022/10/12 02:20:49;;;;;;;4.27;3.83;;;13.00;99.90;12.30;96578.00;;;;5115273;28;20236;-51
2022/10/12 02:23:22;;;;;;;2.90;2.67;;;13.00;99.90;12.30;96570.00;;;;5115349;28;20198;-51
2022/10/12 02:25:50;;;;;;;4.93;3.80;;;13.00;99.90;12.30;96572.00;;;;5115273;28;20312;-51
2022/10/12 02:28:22;;;;;;;7.03;3.83;;;13.00;99.90;12.30;96570.00;;;;5115186;28;20218;-51
2022/10/12 02:30:58;;;;;;;3.60;3.30;;;12.90;99.90;12.30;96569.00;;;;5115224;28;20194;-51
2022/10/12 02:33:34;;;;;;;4.13;3.47;;;13.00;99.90;12.30;96571.00;;;;5115108;28;20201;-51
2022/10/12 02:36:08;;;;;;;2.73;2.53;;;13.00;99.90;12.30;96567.00;;;;5115284;28;20209;-51
2022/10/12 02:38:42;;;;;;;2.80;2.70;;;13.00;99.90;12.30;96556.00;;;;5097194;28;20225;-51
2022/10/12 02:41:16;;;;;;;3.30;3.00;;;13.00;99.90;12.30;96568.00;;;;5115111;28;20222;-51
2022/10/12 02:43:52;;;;;;;3.23;2.97;;;13.00;99.90;12.30;96568.00;;;;5114921;28;20709;-52
2022/10/12 02:46:23;;;;;;;3.67;3.47;;;13.00;99.90;12.30;96574.00;;;;5114919;28;20210;-51
2022/10/12 02:48:53;;;;;;;4.27;3.47;;;13.00;99.90;12.30;96566.00;;;;5115004;28;20238;-52
2022/10/12 02:51:22;;;;;;;7.33;4.70;;;13.00;99.90;12.30;96563.00;;;;5114924;28;20190;-51
2022/10/12 02:53:49;;;;;;;4.97;4.37;;;13.00;99.90;12.30;96567.00;;;;5097057;28;20620;-51
2022/10/12 02:56:16;;;;;;;5.60;3.57;;;13.00;99.90;12.30;96567.00;;;;5114847;28;20281;-51
2022/10/12 02:58:45;;;;;;;2.77;2.43;;;13.00;99.90;12.20;96571.00;;;;5114912;28;20202;-51
2022/10/12 03:01:12;;;;;;;3.57;3.23;;;12.90;99.90;12.20;96567.00;;;;5114788;28;20198;-51
2022/10/12 03:03:39;;;;;;;4.73;3.30;;;12.90;99.90;12.20;96570.00;;;;5114680;28;20276;-52
2022/10/12 03:06:09;;;;;;;2.80;2.60;;;12.90;99.90;12.20;96564.00;;;;5113591;28;20236;-51
2022/10/12 03:08:35;;;;;;;8.40;4.10;;;12.90;99.90;12.20;96564.00;;;;5096613;28;20229;-52
2022/10/12 03:11:03;;;;;;;3.73;3.50;;;12.90;99.90;12.30;96567.00;;;;5114534;28;20305;-52
2022/10/12 03:13:29;;;;;;;4.73;4.33;;;12.90;99.90;12.30;96564.00;;;;5114559;28;20607;-53
2022/10/12 03:16:01;;;;;;;1.40;1.40;;;12.90;99.90;12.20;96552.00;;;;5096547;28;20190;-53
2022/10/12 03:18:28;;;;;;;3.60;3.37;;;12.90;99.90;12.20;96562.00;;;;5114506;28;20209;-52
2022/10/12 03:20:54;;;;;;;7.63;5.23;;;12.90;99.90;12.20;96558.00;;;;5114368;28;20194;-61
2022/10/12 03:23:23;;;;;;;4.17;3.87;;;12.90;99.90;12.10;96557.00;;;;5114442;28;20249;-55
2022/10/12 03:25:50;;;;;;;2.60;2.50;;;12.90;99.90;12.20;96560.00;;;;5096449;28;20226;-52
2022/10/12 03:28:17;;;;;;;7.40;3.80;;;12.90;99.90;12.20;96560.00;;;;5114129;28;20500;-51
2022/10/12 03:30:46;;;;;;;5.47;4.97;;;12.90;99.90;12.20;96558.00;;;;5114262;28;20250;-51
2022/10/12 03:33:12;;;;;;;5.37;4.87;;;12.90;99.90;12.20;96560.00;;;;5114368;28;20308;-51
2022/10/12 03:35:42;;;;;;;4.97;4.47;;;12.90;99.90;12.20;96550.00;;;;5114324;28;20212;-52
2022/10/12 03:38:09;;;;;;;5.13;4.63;;;12.90;99.90;12.20;96555.00;;;;5114131;28;20214;-52
2022/10/12 03:40:38;;;;;;;14.67;5.90;;;12.90;99.90;12.20;96556.00;;;;5114021;28;20202;-51
2022/10/12 03:43:05;;;;;;;2.97;2.87;;;12.90;99.90;12.20;96546.00;;;;5114369;28;20255;-53
2022/10/12 03:45:31;;;;;;;3.23;3.03;;;12.90;99.90;12.20;96553.00;;;;5114243;28;20202;-52
2022/10/12 03:48:00;;;;;;;5.37;4.77;;;12.90;99.90;12.20;96561.00;;;;5114187;28;20273;-54
2022/10/12 03:50:27;;;;;;;6.50;4.57;;;12.90;99.90;12.20;96563.00;;;;5114317;28;20632;-55
2022/10/12 03:52:53;;;;;;;2.70;2.50;;;12.90;99.90;12.20;96561.00;;;;5114209;28;20310;-53
2022/10/12 03:55:20;;;;;;;3.53;3.23;;;12.90;99.90;12.30;96565.00;;;;5114156;28;20655;-53
2022/10/12 03:57:50;;;;;;;4.13;3.83;;;12.90;99.90;12.20;96560.00;;;;5113951;28;20198;-52
2022/10/12 04:00:17;;;;;;;11.33;4.03;;;12.90;99.90;12.30;96567.00;;;;5114018;28;20563;-54
2022/10/12 04:02:43;;;;;;;2.63;2.47;;;12.90;99.90;12.20;96560.00;;;;5113573;28;20186;-57
2022/10/12 04:05:10;;;;;;;4.57;4.17;;;12.90;99.90;12.30;96569.00;;;;5113616;28;20186;-52
2022/10/12 04:07:36;;;;;;;4.13;3.80;;;13.00;99.90;12.30;96567.00;;;;5113604;28;20304;-52
2022/10/12 04:10:04;;;;;;;4.67;3.63;;;13.00;99.90;12.30;96556.00;;;;5113636;28;20277;-51
2022/10/12 04:12:30;;;;;;;4.53;4.13;;;13.00;99.90;12.30;96560.00;;;;5113688;28;20194;-51
2022/10/12 04:14:57;;;;;;;4.17;3.77;;;13.00;99.90;12.30;96559.00;;;;5113648;28;20206;-51
2022/10/12 04:17:24;;;;;;;4.03;3.50;;;13.00;99.90;12.30;96571.00;;;;5116910;28;20204;-51
2022/10/12 04:19:50;;;;;;;7.20;3.80;;;13.00;99.90;12.30;96567.00;;;;5117310;28;20241;-52
2022/10/12 04:22:17;;;;;;;3.83;3.63;;;13.00;99.90;12.20;96561.00;;;;5099325;28;20362;-51
2022/10/12 04:24:43;;;;;;;4.57;4.17;;;13.00;99.90;12.20;96572.00;;;;5117198;28;20672;-52
2022/10/12 04:27:09;;;;;;;4.47;3.80;;;12.90;99.90;12.20;96562.00;;;;5117056;28;20220;-52
2022/10/12 04:29:38;;;;;;;5.53;5.13;;;12.90;99.90;12.20;96566.00;;;;5117119;28;20249;-51
2022/10/12 04:32:08;;;;;;;5.03;3.50;;;12.90;99.90;12.20;96564.00;;;;5099255;28;20207;-51
2022/10/12 04:34:35;;;;;;;2.83;2.67;;;12.90;99.90;12.20;96565.00;;;;5099113;28;20240;-52
2022/10/12 04:37:02;;;;;;;4.07;3.57;;;12.90;99.90;12.20;96561.00;;;;5117137;28;20201;-51
2022/10/12 04:39:28;;;;;;;2.97;2.50;;;13.00;99.90;12.20;96570.00;;;;5117040;28;20217;-51
2022/10/12 04:41:55;;;;;;;4.60;4.20;;;12.90;99.90;12.20;96567.00;;;;5099061;28;20536;-51
2022/10/12 04:44:22;;;;;;;2.73;2.63;;;12.90;99.90;12.20;96569.00;;;;5117039;28;20257;-53
2022/10/12 04:46:48;;;;;;;3.67;2.93;;;12.90;99.90;12.20;96569.00;;;;5116997;28;20236;-50
2022/10/12 04:49:16;;;;;;;4.13;3.57;;;12.90;99.90;12.20;96576.00;;;;5098900;28;20229;-51
2022/10/12 04:51:42;;;;;;;3.90;3.60;;;12.90;99.90;12.30;96576.00;;;;5116934;28;20633;-53
2022/10/12 04:54:09;;;;;;;10.97;3.73;;;12.90;99.90;12.20;96562.00;;;;5098791;28;20293;-51
2022/10/12 04:56:36;;;;;;;4.93;3.53;;;12.90;99.90;12.20;96574.00;;;;5117077;28;20232;-51
2022/10/12 04:59:03;;;;;;;6.50;4.83;;;13.00;99.90;12.30;96570.00;;;;5116562;28;20190;-51
2022/10/12 05:01:29;;;;;;;3.30;3.00;;;12.90;99.90;12.30;96572.00;;;;5117354;28;20178;-51
2022/10/12 05:03:59;;;;;;;4.30;3.90;;;13.00;99.90;12.30;96577.00;;;;5116819;28;20198;-51
2022/10/12 05:06:26;;;;;;;3.13;2.93;;;13.00;99.90;12.20;96572.00;;;;5116586;28;20190;-52
2022/10/12 05:08:52;;;;;;;5.47;2.90;;;12.90;99.90;12.20;96581.00;;;;5116791;28;20201;-54
2022/10/12 05:11:19;;;;;;;2.40;2.20;;;12.90;99.90;12.20;96574.00;;;;5116638;28;20222;-50
2022/10/12 05:13:45;;;;;;;4.40;4.00;;;12.90;99.90;12.30;96579.00;;;;5116488;28;20191;-52
2022/10/12 05:16:12;;;;;;;7.90;4.53;;;13.00;99.90;12.30;96578.00;;;;5116484;28;20221;-53
2022/10/12 05:18:38;;;;;;;8.40;4.30;;;13.00;99.90;12.30;96570.00;;;;5116624;28;20238;-51
2022/10/12 05:21:05;;;;;;;4.67;2.83;;;13.00;99.90;12.30;96564.00;;;;5098323;28;20197;-50
2022/10/12 05:23:32;;;;;;;4.83;3.13;;;13.00;99.90;12.30;96575.00;;;;5116540;28;20685;-52
2022/10/12 05:25:58;;;;;;;5.93;3.67;;;13.00;99.90;12.30;96573.00;;;;5115557;28;20217;-53
2022/10/12 05:28:25;;;;;;;4.20;3.70;;;13.00;99.90;12.30;96569.00;;;;5114615;28;20711;-53
2022/10/12 05:30:52;;;;;;;4.90;3.03;;;13.00;99.90;12.30;96570.00;;;;5116131;28;20210;-56
2022/10/12 05:33:21;;;;;;;5.57;3.33;;;13.00;99.90;12.30;96570.00;;;;5116242;28;20267;-51
2022/10/12 05:35:48;;;;;;;3.83;3.53;;;13.00;99.90;12.30;96576.00;;;;5116068;28;20286;-51
2022/10/12 05:38:15;;;;;;;1.83;1.73;;;13.00;99.90;12.30;96578.00;;;;5116191;28;20238;-52
2022/10/12 05:40:42;;;;;;;2.63;2.43;;;13.00;99.90;12.30;96576.00;;;;5116152;28;20375;-51
2022/10/12 05:43:09;;;;;;;3.30;2.90;;;13.00;99.90;12.30;96565.00;;;;5116093;28;20193;-52
2022/10/12 05:45:35;;;;;;;2.47;2.27;;;13.00;99.90;12.30;96566.00;;;;5098121;28;20266;-51
2022/10/12 05:48:01;;;;;;;4.30;2.87;;;13.00;99.90;12.30;96567.00;;;;5116020;28;20217;-51
2022/10/12 05:50:28;;;;;;;3.47;3.17;;;13.00;99.90;12.30;96578.00;;;;5115993;28;20314;-51
2022/10/12 05:52:54;;;;;;;3.50;3.20;;;13.00;99.90;12.30;96580.00;;;;5115972;28;20656;-53
2022/10/12 05:55:21;;;;;;;3.07;2.83;;;12.90;99.90;12.30;96582.00;;;;5115843;28;20668;-52
2022/10/12 05:57:48;;;;;;;2.93;2.77;;;12.90;99.90;12.30;96580.00;;;;5116103;28;20182;-53
2022/10/12 06:00:15;;;;;;;5.40;4.53;;;12.90;99.90;12.30;96574.00;;;;5115775;28;20213;-51
2022/10/12 06:02:42;;;;;;;5.00;4.33;;;12.90;99.90;12.40;96578.00;;;;5115785;28;20259;-51
2022/10/12 06:05:09;;;;;;;3.53;3.27;;;13.00;99.90;12.30;96575.00;;;;5115745;28;20804;-51
2022/10/12 06:07:35;;;;;;;5.23;4.77;;;13.00;99.90;12.30;96572.00;;;;5115685;28;20242;-52
2022/10/12 06:10:02;;;;;;;3.43;3.23;;;13.00;99.90;12.40;96581.00;;;;5115593;28;20216;-51
2022/10/12 06:12:29;;;;;;;6.07;4.03;;;13.00;99.90;12.40;96575.00;;;;5115620;28;20197;-51
2022/10/12 06:14:56;;;;;;;2.87;2.63;;;13.00;99.90;12.40;96578.00;;;;5115454;28;20224;-51
2022/10/12 06:17:22;;;;;;;3.50;2.50;;;13.00;99.90;12.40;96576.00;;;;5115500;28;20198;-52
2022/10/12 06:19:49;;;;;;;5.03;4.53;;;13.10;99.90;12.40;96577.00;;;;5115388;28;20697;-52
2022/10/12 06:22:15;;;;;;;3.63;3.33;;;13.00;99.90;12.50;96586.00;;;;5114801;28;20201;-51
2022/10/12 06:24:42;;;;;;;2.33;2.20;;;13.10;99.90;12.50;96584.00;;;;5115634;28;20222;-51
2022/10/12 06:27:08;;;;;;;4.03;3.37;;;13.10;99.90;12.50;96583.00;;;;5115384;28;20688;-51
2022/10/12 06:29:37;;;;;;;8.30;4.80;;;13.10;99.90;12.40;96588.00;;;;5115259;28;20219;-52
2022/10/12 06:32:04;;;;;;;6.50;2.90;;;13.10;99.90;12.50;96586.00;;;;5115009;28;20296;-52
2022/10/12 06:34:30;;;;;;;5.23;4.00;;;13.10;99.90;12.50;96581.00;;;;5115017;28;20281;-51
2022/10/12 06:36:57;;;;;;;3.80;3.37;;;13.10;99.90;12.60;96578.00;;;;5114768;28;20245;-52
2022/10/12 06:39:24;;;;;;;6.67;4.33;;;13.20;99.90;12.60;96590.00;;;;5114235;28;20579;-54
2022/10/12 06:41:51;;;;;;;6.07;3.93;;;13.20;99.90;12.60;96591.00;;;;5114957;28;20221;-52
2022/10/12 06:44:21;;;;;;;2.83;2.63;;;13.20;99.90;12.70;96592.00;;;;5115001;28;20201;-53
2022/10/12 06:46:50;;;;;;;4.57;3.80;;;13.30;99.90;12.70;96587.00;;;;5097179;28;20541;-51
2022/10/12 06:49:17;;;;;;;3.23;3.03;;;13.40;99.90;12.70;96591.00;;;;5114907;28;20204;-52
2022/10/12 06:51:44;;;;;;;3.17;2.77;;;13.40;99.90;12.70;96591.00;;;;5114969;28;20190;-53
2022/10/12 06:54:10;;;;;;;5.60;3.47;;;13.40;99.90;12.80;96595.00;;;;5114948;28;20539;-52
2022/10/12 06:56:38;;;;;;;3.20;2.97;;;13.50;99.90;12.80;96592.00;;;;5115035;28;20209;-52
2022/10/12 06:59:05;;;;;;;4.80;3.80;;;13.50;99.90;12.90;96595.00;;;;5114820;28;20301;-52
2022/10/12 07:01:31;;;;;;;2.83;2.63;;;13.50;99.90;12.80;96590.00;;;;5096778;28;20197;-51
2022/10/12 07:03:58;;;;;;;5.40;4.30;;;13.50;99.90;12.90;96593.00;;;;5114586;28;20308;-52
2022/10/12 07:06:25;;;;;;;2.57;2.40;;;13.50;99.90;12.90;96599.00;;;;5114553;28;20229;-54
2022/10/12 07:08:54;;;;;;;3.97;2.60;;;13.60;99.90;12.90;96595.00;;;;5114710;28;20258;-54
2022/10/12 07:11:21;;;;;;;3.57;3.00;;;13.50;99.90;12.90;96589.00;;;;5097099;28;20226;-52
2022/10/12 07:13:47;;;;;;;2.67;2.27;;;13.60;99.30;12.90;96598.00;;;;5114389;28;20194;-52
2022/10/12 07:16:15;;;;;;;3.20;3.00;;;13.60;99.30;13.00;96590.00;;;;5096163;28;20692;-51
2022/10/12 07:18:41;;;;;;;3.87;3.50;;;13.60;99.80;13.00;96592.00;;;;5114438;28;20640;-51
2022/10/12 07:21:07;;;;;;;4.03;3.63;;;13.60;98.20;12.90;96597.00;;;;5114222;28;20300;-53
2022/10/12 07:23:36;;;;;;;3.73;3.40;;;13.60;98.60;13.00;96594.00;;;;5096387;28;20292;-52
2022/10/12 07:26:03;;;;;;;3.37;2.93;;;13.60;99.10;13.00;96591.00;;;;5114236;28;20194;-52
2022/10/12 07:28:30;;;;;;;2.30;2.03;;;13.60;99.00;13.00;96592.00;;;;5114087;28;20321;-52
2022/10/12 07:31:01;;;;;;;2.77;2.57;;;13.70;98.40;13.10;96595.00;;;;5114068;28;20221;-52
2022/10/12 07:33:31;;;;;;;2.80;2.60;;;13.70;98.10;13.30;96588.00;;;;5113886;28;20218;-53
2022/10/12 07:35:58;;;;;;;4.10;2.63;;;13.90;98.20;13.30;96595.00;;;;5096261;28;20201;-53
2022/10/12 07:38:24;;;;;;;2.37;2.27;;;13.90;96.70;13.30;96593.00;;;;5113979;28;20248;-52
2022/10/12 07:40:52;;;;;;;2.90;2.67;;;13.90;96.20;13.30;96570.00;;;;5114056;28;20205;-52
2022/10/12 07:43:18;;;;;;;3.47;3.27;;;13.90;96.00;13.20;96589.00;;;;5114227;28;20555;-52
2022/10/12 07:45:45;;;;;;;7.73;3.70;;;13.90;94.80;13.20;96564.00;;;;5114117;28;20217;-54
2022/10/12 07:48:12;;;;;;;5.43;2.23;;;13.80;95.30;13.20;96603.00;;;;5114027;28;20260;-52
2022/10/12 07:50:39;;;;;;;1.73;1.63;;;13.80;95.80;13.10;96592.00;;;;5113199;28;20226;-52
2022/10/12 07:53:05;;;;;;;1.57;1.47;;;13.60;94.10;12.90;96591.00;;;;5114207;28;20198;-51
2022/10/12 07:55:32;;;;;;;1.80;1.70;;;13.50;95.60;13.00;96597.00;;;;5114103;28;20226;-52
2022/10/12 07:58:00;;;;;;;3.00;2.57;;;13.60;96.30;12.90;96597.00;;;;5113985;28;20194;-54
2022/10/12 08:00:26;;;;;;;2.40;1.50;;;13.60;95.00;13.00;96602.00;;;;5113495;28;20213;-54
2022/10/12 08:02:53;;;;;;;1.83;1.77;;;13.60;95.90;13.10;96604.00;;;;5113912;28;20236;-51
2022/10/12 08:05:21;;;;;;;2.07;1.87;;;13.70;95.70;13.10;96605.00;;;;5113981;28;20289;-52
2022/10/12 08:07:47;;;;;;;4.00;3.40;;;13.70;95.80;13.20;96603.00;;;;5113777;28;20240;-53
2022/10/12 08:10:15;;;;;;;2.17;2.07;;;13.80;94.70;13.20;96606.00;;;;5113865;28;20572;-56
2022/10/12 08:12:43;;;;;;;1.63;1.63;;;13.80;93.90;13.20;96606.00;;;;5095741;28;20274;-52
2022/10/12 08:15:11;;;;;;;1.80;1.70;;;13.80;93.50;13.20;96609.00;;;;5114056;28;20248;-52
2022/10/12 08:17:38;;;;;;;3.30;3.00;;;13.80;94.20;13.20;96610.00;;;;5113719;28;20182;-54
2022/10/12 08:20:07;;;;;;;5.00;4.23;;;13.70;93.50;13.10;96603.00;;;;5096050;28;20545;-54
2022/10/12 08:22:33;;;;;;;2.83;2.63;;;13.70;93.80;13.10;96606.00;;;;5113936;28;20208;-53
2022/10/12 08:25:00;;;;;;;20.40;3.40;;;13.80;93.80;13.10;96610.00;;;;5113581;28;20304;-52
2022/10/12 08:27:30;;;;;;;7.20;2.63;;;13.70;93.50;13.20;96608.00;;;;5095670;28;20605;-51
2022/10/12 08:29:56;;;;;;;4.33;2.57;;;13.80;94.90;13.40;96614.00;;;;5113411;28;20652;-51
2022/10/12 08:32:24;;;;;;;2.47;2.27;;;13.90;94.20;13.40;96617.00;;;;5113573;28;20197;-53
2022/10/12 08:34:50;;;;;;;2.23;2.13;;;14.00;93.20;13.50;96610.00;;;;5113467;28;20190;-54
2022/10/12 08:37:17;;;;;;;2.30;2.03;;;14.10;91.40;13.50;96610.00;;;;5113309;28;20214;-52
2022/10/12 08:39:43;;;;;;;3.70;2.50;;;14.10;91.70;13.40;96617.00;;;;5113503;28;20217;-52
2022/10/12 08:42:35;;;;;;;2.60;2.40;;;14.10;91.90;13.40;96618.00;;;;5113221;28;20657;-54
2022/10/12 08:45:29;;;;;;;5.97;3.30;;;14.10;92.00;13.50;96613.00;;;;5095482;28;20503;-52
2022/10/12 08:48:01;;;;;;;3.80;3.47;;;13.70;91.80;13.20;96607.00;;;;5113150;28;20230;-54
2022/10/12 08:50:33;;;;;;;2.00;1.90;;;13.70;92.60;13.30;96611.00;;;;5113281;28;20210;-52
2022/10/12 08:53:08;;;;;;;1.20;1.10;;;13.90;91.80;13.40;96612.00;;;;5113211;28;20273;-52
2022/10/12 08:55:41;;;;;;;2.33;2.13;;;13.90;91.90;13.50;96606.00;;;;5113307;28;20193;-54
2022/10/12 08:58:16;;;;;;;4.10;2.77;;;14.00;91.50;13.50;96609.00;;;;5113204;28;20210;-52
2022/10/12 09:00:49;;;;;;;2.93;2.63;;;14.10;92.20;13.20;96604.00;;;;5095547;28;20197;-53
2022/10/12 09:03:37;;;;;;;1.93;1.83;;;13.80;91.80;13.00;96603.00;;;;5116283;28;20222;-52
2022/10/12 09:06:11;;;;;;;4.77;2.20;;;13.70;92.90;13.20;96611.00;;;;5116614;28;20225;-58
2022/10/12 09:08:53;;;;;;;2.03;1.93;;;;;13.20;96606.00;;;;5116687;28;20218;-55
2022/10/12 09:11:41;;;;;;;3.47;1.73;;;13.70;93.00;13.40;96604.00;;;;5116407;28;20214;-52
2022/10/12 09:14:17;;;;;;;1.97;1.87;;;13.90;93.60;13.60;96599.00;;;;5116644;28;20216;-52
2022/10/12 09:16:47;;;;;;;2.83;2.63;;;14.10;91.60;13.50;96603.00;;;;5116487;28;20266;-52
2022/10/12 09:19:21;;;;;;;7.57;3.20;;;14.10;91.20;13.50;96610.00;;;;5116622;28;20589;-54
2022/10/12 09:21:49;;;;;;;2.13;2.00;;;14.00;89.80;13.40;96604.00;;;;5116545;28;20190;-52
2022/10/12 09:24:21;;;;;;;3.60;1.70;;;14.00;91.30;13.70;96614.00;;;;5098601;28;20239;-53
2022/10/12 09:26:52;;;;;;;4.73;2.13;;;14.20;91.50;13.80;96615.00;;;;5116309;28;20201;-53
2022/10/12 09:29:26;;;;;;;6.33;1.93;;;14.30;90.50;13.70;96626.00;;;;5116505;28;20245;-51
2022/10/12 09:32:30;;;;;;;4.87;3.50;;;14.20;91.30;13.50;96617.00;;;;5098253;28;20304;-55
2022/10/12 09:34:58;;;;;;;1.73;1.63;;;14.10;91.70;13.70;96615.00;;;;5116092;28;20282;-53
2022/10/12 09:37:29;;;;;;;2.13;1.97;;;;;13.90;96622.00;;;;5116330;28;20209;-51
2022/10/12 09:39:56;;;;;;;2.00;1.90;;;14.40;90.30;13.90;96625.00;;;;5116111;28;20222;-54
2022/10/12 09:42:23;;;;;;;2.57;2.23;;;14.50;90.00;13.80;96633.00;;;;5115986;28;20688;-52
2022/10/12 09:44:58;;;;;;;2.40;2.30;;;14.30;89.60;13.70;96637.00;;;;5115849;28;20194;-51
2022/10/12 09:47:29;;;;;;;1.73;1.63;;;14.30;90.50;13.90;96634.00;;;;5116094;28;20510;-53
2022/10/12 09:49:58;;;;;;;2.00;1.90;;;14.30;90.40;13.90;96631.00;;;;5097976;28;20270;-51
2022/10/12 09:52:29;;;;;;;1.97;1.87;;;14.40;89.00;14.00;96624.00;;;;5097826;28;20198;-53
2022/10/12 09:55:00;;;;;;;1.97;1.83;;;14.50;90.70;13.90;96627.00;;;;5098078;28;20302;-52
2022/10/12 09:57:32;;;;;;;2.83;2.33;;;14.50;89.70;14.10;96622.00;;;;5115737;28;20283;-54
2022/10/12 10:00:01;;;;;;;2.20;2.10;;;14.60;89.60;14.10;96636.00;;;;5115840;28;20228;-52
2022/10/12 10:02:28;;;;;;;2.57;2.37;;;14.70;90.10;14.20;96623.00;;;;5115721;28;20209;-53
2022/10/12 10:04:55;;;;;;;4.30;2.70;;;14.70;88.90;14.30;96627.00;;;;5115822;28;20286;-52
2022/10/12 10:07:30;;;;;;;1.97;1.83;;;14.80;87.50;14.20;96624.00;;;;5115569;28;20256;-52
2022/10/12 10:10:13;;;;;;;2.17;1.97;;;14.70;88.40;14.10;96619.00;;;;5097604;28;20200;-52
2022/10/12 10:12:48;;;;;;;1.90;1.83;;;14.70;88.50;14.30;96618.00;;;;5115534;28;20205;-52
2022/10/12 10:15:26;;;;;;;2.03;1.93;;;14.80;87.40;14.20;96625.00;;;;5114927;28;20282;-55
2022/10/12 10:17:58;;;;;;;2.03;1.93;;;14.70;89.00;14.40;96625.00;;;;5097658;28;20223;-51
2022/10/12 10:20:33;;;;;;;1.67;1.57;;;14.90;87.00;14.40;96626.00;;;;5115433;28;20222;-51
2022/10/12 10:23:03;;;;;;;2.70;2.40;;;14.90;87.70;14.60;96588.00;;;;5115476;28;20190;-52
2022/10/12 10:25:34;;;;;;;4.03;1.87;;;15.20;85.50;14.80;96622.00;;;;5115437;28;20190;-52
2022/10/12 10:28:23;;;;;;;2.80;2.60;;;15.20;86.10;14.70;96616.00;;;;5115428;28;20214;-51
2022/10/12 10:31:01;;;;;;;3.23;2.17;;;15.20;85.50;14.80;96619.00;;;;5115437;28;20285;-51
2022/10/12 10:33:28;;;;;;;1.07;1.03;;;15.50;84.70;15.00;96623.00;;;;5097420;28;20201;-51
2022/10/12 10:36:01;;;;;;;1.13;1.13;;;15.50;85.00;15.00;96622.00;;;;5115203;28;20343;-52
2022/10/12 10:38:33;;;;;;;1.90;1.70;;;15.50;85.20;15.20;96626.00;;;;5115281;28;20313;-51
2022/10/12 10:41:05;;;;;;;3.67;2.63;;;15.60;80.70;14.90;96624.00;;;;5115178;28;20273;-51
2022/10/12 10:43:32;;;;;;;1.53;1.43;;;15.50;82.60;15.00;96624.00;;;;5115077;28;20229;-50
2022/10/12 10:46:02;;;;;;;2.00;1.90;;;15.60;83.10;15.10;96620.00;;;;5115197;28;20214;-50
2022/10/12 10:48:36;;;;;;;1.23;1.13;;;15.60;83.90;15.30;96619.00;;;;5115066;28;20649;-53
2022/10/12 10:51:06;;;;;;;3.30;2.83;;;15.80;82.90;15.30;96618.00;;;;5115120;28;20284;-54
2022/10/12 10:53:44;;;;;;;7.33;2.30;;;15.80;82.60;15.30;96615.00;;;;5115000;28;20198;-51
2022/10/12 10:56:15;;;;;;;3.90;2.50;;;15.80;81.80;15.40;96615.00;;;;5114965;28;20190;-50
2022/10/12 10:58:46;;;;;;;5.77;2.00;;;15.50;80.10;14.80;96597.00;;;;5097071;28;20194;-52
2022/10/12 11:01:21;;;;;;;1.70;1.60;;;15.50;81.60;15.00;96623.00;;;;5096851;28;20261;-51
2022/10/12 11:03:59;;;;;;;0.60;0.60;;;15.60;84.10;15.20;96616.00;;;;5114770;28;20205;-52
2022/10/12 11:06:40;;;;;;;1.10;1.10;;;15.70;83.40;15.40;96618.00;;;;5114748;28;20221;-51
2022/10/12 11:09:15;;;;;;;1.20;1.20;;;16.00;82.40;15.40;96618.00;;;;5114674;28;20198;-51